Terminal Aerodrome Forecast
Issued by NWS Sterling, VA

Home | Current Version | Previous Version | Text Only | Print | Product List | Glossary On
Versions: 1 2 3 4 5 6 7 8 9 10 11 12 13
000
FTUS41 KLWX 020531
TAFCHO
TAF
KCHO 020531Z 0206/0306 VRB03KT 5SM BR BKN070 BKN250
     FM020800 VRB03KT 3SM BR BKN070 BKN250
     FM021300 VRB03KT P6SM BKN070 BKN250
     FM021600 VRB03KT P6SM VCTS BKN060CB BKN080
     FM021900 VRB03KT P6SM -SHRA VCTS BKN060CB BKN080
     FM022200 VRB03KT P6SM BKN060 BKN080
     FM030400 29004KT 5SM BR BKN080 BKN250=

USA.gov is the U.S. government's official web portal to all federal, state and local government web resources and services.